Ouagadougou, Burkina Faso
Current Conditions -  °F | °C
As of 11:00 AM on Sunday 23 Nov 2014 (Local Time) from DFFD Reporting Station
Clear Clear  
Wind Chill: 93°   Ceiling: Unl
Heat Index: 93°   Visibility: 5mi
Dew Point: 43°   Wind: 13mph
Humidity: 17%   Direction: 100°E
Pressure: 29.97"   Gusts: NA
Location:  12.37°N, 1.53°W
Report Text: DFFD 231100Z 10011KT 070V140 8000 NSC 34/06 Q1015 NOSIG
Loading
Personal Weather Stations






























Interactive Weather Map New forecast layout! Learn more

10-Day Weather Forecast

Advertisements
Track Severe Weather on mobile